createdAt,value
2019-04-11T00:00:31.382Z,37.86
2019-04-11T00:03:00.919Z,37.82
2019-04-11T00:05:30.723Z,37.88
2019-04-11T00:08:00.246Z,37.90
2019-04-11T00:10:29.900Z,38.02
2019-04-11T00:12:59.298Z,38.01
2019-04-11T00:15:28.830Z,37.77
2019-04-11T00:17:58.626Z,37.81
2019-04-11T00:20:28.421Z,37.71
2019-04-11T00:22:57.852Z,37.88
2019-04-11T00:25:27.529Z,37.87
2019-04-11T00:27:57.308Z,37.82
2019-04-11T00:30:27.982Z,37.74
2019-04-11T00:32:58.051Z,37.61
2019-04-11T00:35:27.911Z,37.68
2019-04-11T00:37:57.528Z,37.92
2019-04-11T00:40:27.045Z,38.25
2019-04-11T00:42:56.784Z,38.22
2019-04-11T00:45:27.470Z,38.15
2019-04-11T00:47:57.523Z,37.96
2019-04-11T00:50:27.563Z,37.79
2019-04-11T00:52:58.135Z,37.75
2019-04-11T00:55:27.469Z,37.59
2019-04-11T00:57:57.117Z,37.61
2019-04-11T01:00:27.097Z,37.65
2019-04-11T01:02:56.555Z,37.61
2019-04-11T01:05:25.893Z,37.58
2019-04-11T01:07:55.436Z,37.57
2019-04-11T01:10:26.563Z,37.53
2019-04-11T01:12:56.713Z,37.59
2019-04-11T01:15:27.138Z,37.60
2019-04-11T01:17:56.653Z,37.65
2019-04-11T01:20:27.132Z,37.77
2019-04-11T01:22:56.625Z,37.88
2019-04-11T01:25:26.011Z,37.98
2019-04-11T01:27:56.358Z,38.13
2019-04-11T01:30:30.626Z,38.17
2019-04-11T01:33:02.406Z,38.30
2019-04-11T01:35:33.131Z,38.31
2019-04-11T01:38:02.726Z,38.31
2019-04-11T01:40:32.063Z,38.48
2019-04-11T01:43:01.928Z,38.51
2019-04-11T01:45:31.657Z,38.45
2019-04-11T01:48:03.635Z,38.54
2019-04-11T01:50:34.916Z,38.61
2019-04-11T01:53:04.396Z,38.74
2019-04-11T01:55:34.772Z,38.68
2019-04-11T01:58:04.610Z,38.75
2019-04-11T02:00:46.531Z,38.80
2019-04-11T02:03:17.512Z,38.91
2019-04-11T02:05:47.434Z,39.13
2019-04-11T02:08:17.454Z,39.21
2019-04-11T02:10:46.866Z,39.23
2019-04-11T02:13:17.458Z,39.28
2019-04-11T02:15:46.896Z,39.31
2019-04-11T02:18:16.247Z,39.43
2019-04-11T02:20:45.594Z,39.36
2019-04-11T02:23:33.169Z,39.30
2019-04-11T02:26:16.776Z,39.34
2019-04-11T02:28:46.698Z,39.47
2019-04-11T02:31:17.364Z,39.58
2019-04-11T02:33:48.807Z,39.56
2019-04-11T02:36:19.257Z,39.62
2019-04-11T02:38:55.150Z,39.70
2019-04-11T02:41:21.123Z,39.71
2019-04-11T02:43:51.063Z,39.76
2019-04-11T02:46:31.391Z,39.84
2019-04-11T02:48:52.264Z,40.10
2019-04-11T02:51:24.739Z,39.97
2019-04-11T02:53:54.931Z,40.04
2019-04-11T02:56:25.731Z,39.95
2019-04-11T02:58:56.526Z,39.86
2019-04-11T03:01:26.370Z,39.92
2019-04-11T03:03:59.044Z,39.94
2019-04-11T03:06:28.344Z,39.91
2019-04-11T03:08:59.287Z,40.02
2019-04-11T03:11:30.325Z,39.96
2019-04-11T03:14:01.195Z,40.15
2019-04-11T03:16:42.686Z,40.17
2019-04-11T03:19:18.265Z,40.11
2019-04-11T03:21:37.299Z,40.10
2019-04-11T03:24:06.160Z,40.16
2019-04-11T03:26:35.481Z,40.20
2019-04-11T03:29:06.386Z,40.09
2019-04-11T03:32:24.831Z,40.19
2019-04-11T03:39:29.129Z,40.32
2019-04-11T03:41:59.303Z,40.45
2019-04-11T03:44:21.305Z,40.48
2019-04-11T03:47:02.215Z,40.73
2019-04-11T03:49:25.431Z,40.75
2019-04-11T03:51:47.770Z,40.77
2019-04-11T03:54:17.957Z,40.86
2019-04-11T03:56:49.303Z,40.89
2019-04-11T03:59:19.535Z,40.86
2019-04-11T04:01:51.599Z,40.95
2019-04-11T04:04:21.801Z,40.94
2019-04-11T04:06:52.851Z,41.05
2019-04-11T04:09:23.956Z,40.96
2019-04-11T04:11:56.876Z,40.84
2019-04-11T04:14:42.837Z,40.92
2019-04-11T04:17:14.883Z,40.72
2019-04-11T04:19:54.333Z,40.84
2019-04-11T04:22:29.399Z,41.07
2019-04-11T04:25:00.930Z,41.35
2019-04-11T04:27:31.099Z,41.28
2019-04-11T04:30:04.191Z,41.19
2019-04-11T04:32:33.072Z,41.13
2019-04-11T04:35:03.090Z,41.02
2019-04-11T04:37:34.614Z,40.96
2019-04-11T04:40:24.218Z,40.76
2019-04-11T04:42:44.446Z,40.69
2019-04-11T04:45:10.165Z,40.68
2019-04-11T04:47:47.889Z,40.67
2019-04-11T04:50:13.179Z,40.54
2019-04-11T04:52:42.815Z,40.67
2019-04-11T04:55:12.902Z,40.78
2019-04-11T04:57:43.011Z,40.71
2019-04-11T05:00:14.888Z,40.78
2019-04-11T05:02:44.678Z,40.79
2019-04-11T05:05:14.199Z,40.83
2019-04-11T05:07:46.282Z,40.78
2019-04-11T05:10:15.423Z,40.77
2019-04-11T05:12:46.117Z,40.81
2019-04-11T05:15:16.705Z,40.95
2019-04-11T05:17:46.354Z,40.97
2019-04-11T05:20:16.291Z,40.82
2019-04-11T05:22:47.134Z,40.68
2019-04-11T05:25:16.655Z,40.63
2019-04-11T05:27:45.987Z,40.62
2019-04-11T05:30:16.619Z,41.04
2019-04-11T05:32:47.115Z,40.98
2019-04-11T05:35:16.708Z,40.63
2019-04-11T05:37:47.069Z,40.28
2019-04-11T05:40:16.944Z,40.41
2019-04-11T05:42:51.266Z,40.17
2019-04-11T05:45:21.149Z,40.18
2019-04-11T05:47:50.883Z,40.20
2019-04-11T05:50:24.553Z,40.15
2019-04-11T05:52:54.598Z,39.89
2019-04-11T05:55:24.590Z,39.82
2019-04-11T05:57:54.418Z,39.77
2019-04-11T06:00:25.476Z,39.57
2019-04-11T06:02:59.679Z,39.35
2019-04-11T06:05:35.487Z,39.38
2019-04-11T06:08:06.534Z,39.48
2019-04-11T06:10:43.464Z,39.45
2019-04-11T06:13:16.616Z,39.32
2019-04-11T06:15:47.723Z,39.32
2019-04-11T06:18:29.342Z,39.23
2019-04-11T06:20:54.021Z,39.14
2019-04-11T06:23:41.627Z,39.07
2019-04-11T06:26:22.913Z,38.98
2019-04-11T06:28:55.548Z,38.97
2019-04-11T06:31:29.873Z,38.94
2019-04-11T06:34:00.862Z,38.73
2019-04-11T06:36:45.248Z,38.66
2019-04-11T06:39:19.061Z,38.70
2019-04-11T06:42:04.147Z,38.32
2019-04-11T06:44:41.700Z,38.45
2019-04-11T06:47:30.962Z,38.27
2019-04-11T06:50:02.821Z,38.26
2019-04-11T06:52:32.885Z,37.97
2019-04-11T06:55:08.791Z,37.70
2019-04-11T06:57:49.971Z,37.71
2019-04-11T07:00:21.060Z,37.45
2019-04-11T07:02:59.102Z,37.39
2019-04-11T07:05:30.879Z,37.12
2019-04-11T07:08:02.774Z,37.01
2019-04-11T07:10:34.207Z,36.76
2019-04-11T07:13:14.358Z,36.78
2019-04-11T07:15:46.456Z,36.72
2019-04-11T07:18:35.685Z,36.36
2019-04-11T07:21:06.895Z,36.24
2019-04-11T07:23:55.444Z,35.93
2019-04-11T07:26:27.384Z,36.13
2019-04-11T07:29:04.644Z,35.44
2019-04-11T07:31:50.855Z,35.45
2019-04-11T07:34:39.317Z,35.24
2019-04-11T07:37:26.134Z,34.98
2019-04-11T07:40:13.348Z,34.68
2019-04-11T07:42:43.450Z,34.12
2019-04-11T07:45:14.185Z,33.63
2019-04-11T07:47:48.285Z,32.49
2019-04-11T07:50:18.736Z,30.18
2019-04-11T07:52:51.580Z,30.44
2019-04-11T07:55:22.838Z,29.10
2019-04-11T07:57:54.654Z,28.41
2019-04-11T08:00:36.754Z,28.00
2019-04-11T08:03:16.848Z,26.98
2019-04-11T08:06:05.117Z,25.45
2019-04-11T08:08:39.519Z,24.33
2019-04-11T08:11:11.520Z,24.23
2019-04-11T08:13:42.965Z,23.52
2019-04-11T08:16:30.839Z,23.61
2019-04-11T08:19:20.603Z,23.81
2019-04-11T08:22:00.848Z,23.72
2019-04-11T08:24:40.688Z,22.78
2019-04-11T08:27:27.480Z,22.23
2019-04-11T08:29:58.858Z,22.25
2019-04-11T08:32:47.777Z,22.44
2019-04-11T08:35:34.978Z,21.75
2019-04-11T08:38:09.933Z,21.06
2019-04-11T08:40:49.175Z,20.60
2019-04-11T08:43:21.314Z,20.68
2019-04-11T08:46:08.882Z,20.63
2019-04-11T08:48:45.783Z,20.27
2019-04-11T08:51:16.967Z,20.12
2019-04-11T08:53:49.038Z,19.99
2019-04-11T08:56:19.302Z,19.22
2019-04-11T08:59:13.331Z,19.10
2019-04-11T09:01:42.981Z,19.69
2019-04-11T09:04:15.289Z,18.64
2019-04-11T09:06:45.122Z,18.70
2019-04-11T09:09:23.240Z,18.27
2019-04-11T09:11:54.520Z,18.20
2019-04-11T09:14:41.759Z,17.40
2019-04-11T09:17:10.883Z,17.21
2019-04-11T09:19:57.045Z,17.58
2019-04-11T09:22:26.175Z,16.70
2019-04-11T09:24:55.292Z,17.00
2019-04-11T09:27:42.232Z,16.94
2019-04-11T09:30:15.667Z,16.90
2019-04-11T09:33:02.573Z,16.83
2019-04-11T09:35:31.713Z,15.51
2019-04-11T09:38:08.728Z,16.45
2019-04-11T09:40:37.845Z,16.83
2019-04-11T09:43:24.287Z,16.44
2019-04-11T09:45:54.272Z,15.42
2019-04-11T09:48:35.914Z,15.07
2019-04-11T09:51:23.497Z,15.35
2019-04-11T09:53:54.957Z,15.00
2019-04-11T09:56:36.372Z,15.54
2019-04-11T09:59:12.261Z,14.54
2019-04-11T10:01:42.924Z,15.19
2019-04-11T10:04:14.378Z,14.36
2019-04-11T10:07:01.903Z,14.39
2019-04-11T10:09:35.803Z,14.24
2019-04-11T10:12:23.982Z,14.28
2019-04-11T10:14:53.783Z,14.40
2019-04-11T10:17:29.679Z,14.27
2019-04-11T10:20:00.816Z,13.77
2019-04-11T10:22:29.935Z,14.18
2019-04-11T10:25:01.048Z,14.10
2019-04-11T10:27:33.031Z,13.52
2019-04-11T10:30:19.507Z,13.63
2019-04-11T10:32:51.747Z,14.09
2019-04-11T10:35:21.948Z,13.37
2019-04-11T10:37:52.851Z,13.51
2019-04-11T10:40:36.446Z,13.17
2019-04-11T10:43:05.912Z,12.86
2019-04-11T10:45:53.140Z,12.76
2019-04-11T10:48:36.533Z,11.90
2019-04-11T10:51:10.836Z,11.87
2019-04-11T10:53:41.871Z,11.97
2019-04-11T10:56:13.665Z,11.76
2019-04-11T10:58:44.963Z,11.55
2019-04-11T11:01:25.610Z,11.42
2019-04-11T11:04:01.153Z,11.08
2019-04-11T11:06:32.518Z,11.77
2019-04-11T11:09:08.023Z,11.79
2019-04-11T11:11:48.466Z,11.46
2019-04-11T11:14:18.774Z,10.99
2019-04-11T11:16:50.722Z,10.77
2019-04-11T11:19:52.887Z,10.89
2019-04-11T11:22:08.952Z,10.74
2019-04-11T11:24:56.198Z,10.41
2019-04-11T11:27:26.571Z,9.96
2019-04-11T11:30:03.130Z,10.18
2019-04-11T11:32:31.656Z,9.89
2019-04-11T11:35:03.429Z,9.65
2019-04-11T11:37:37.499Z,9.70
2019-04-11T11:40:21.853Z,9.50
2019-04-11T11:43:09.173Z,9.81
2019-04-11T11:45:52.436Z,9.86
2019-04-11T11:48:33.548Z,9.79
2019-04-11T11:51:05.456Z,9.42
2019-04-11T11:53:38.551Z,9.50
2019-04-11T11:56:09.583Z,8.74
2019-04-11T11:58:47.889Z,8.83
2019-04-11T12:01:29.593Z,8.81
2019-04-11T12:04:17.115Z,8.68
2019-04-11T12:06:48.953Z,8.45
2019-04-11T12:09:28.739Z,8.99
2019-04-11T12:12:18.205Z,9.49
2019-04-11T12:15:05.031Z,8.52
2019-04-11T12:17:52.353Z,8.37
2019-04-11T12:20:39.408Z,8.46
2019-04-11T12:23:19.957Z,8.14
2019-04-11T12:25:49.399Z,8.18
2019-04-11T12:28:36.219Z,8.40
2019-04-11T12:31:07.140Z,8.11
2019-04-11T12:33:38.405Z,7.86
2019-04-11T12:36:09.868Z,7.71
2019-04-11T12:38:49.612Z,7.85
2019-04-11T12:41:23.419Z,7.78
2019-04-11T12:43:52.558Z,7.57
2019-04-11T12:46:40.049Z,8.06
2019-04-11T12:49:27.203Z,7.81
2019-04-11T12:52:13.383Z,7.42
2019-04-11T12:54:44.358Z,8.04
2019-04-11T12:57:31.747Z,7.73
2019-04-11T13:00:14.734Z,7.68
2019-04-11T13:03:01.638Z,7.51
2019-04-11T13:05:32.995Z,7.99
2019-04-11T13:08:20.425Z,7.19
2019-04-11T13:10:49.825Z,7.88
2019-04-11T13:13:18.923Z,7.89
2019-04-11T13:15:51.234Z,7.77
2019-04-11T13:18:22.214Z,7.29
2019-04-11T13:20:53.202Z,7.70
2019-04-11T13:23:25.302Z,7.66
2019-04-11T13:26:08.033Z,7.45
2019-04-11T13:28:37.416Z,7.12
2019-04-11T13:31:06.535Z,6.92
2019-04-11T13:33:35.858Z,6.95
2019-04-11T13:36:23.095Z,6.97
2019-04-11T13:38:52.426Z,6.92
2019-04-11T13:41:29.365Z,6.75
2019-04-11T13:43:58.767Z,7.13
2019-04-11T13:46:33.525Z,7.06
2019-04-11T13:49:02.639Z,6.58
2019-04-11T13:51:31.819Z,6.36
2019-04-11T13:54:19.062Z,6.37
2019-04-11T13:57:07.386Z,6.37
2019-04-11T13:59:36.710Z,6.52
2019-04-11T14:02:07.940Z,6.34
2019-04-11T14:04:46.014Z,6.33
2019-04-11T14:07:23.544Z,6.29
2019-04-11T14:10:01.671Z,6.22
2019-04-11T14:12:33.400Z,6.86
2019-04-11T14:15:11.141Z,6.74
2019-04-11T14:17:41.923Z,6.64
2019-04-11T14:20:28.655Z,6.79
2019-04-11T14:23:02.843Z,6.92
2019-04-11T14:25:40.146Z,6.89
2019-04-11T14:28:13.671Z,6.61
2019-04-11T14:30:51.565Z,6.15
2019-04-11T14:33:18.665Z,6.43
2019-04-11T14:35:59.530Z,6.41
2019-04-11T14:38:32.003Z,6.44
2019-04-11T14:41:11.859Z,6.38
2019-04-11T14:43:45.931Z,6.33
2019-04-11T14:46:36.551Z,6.12
2019-04-11T14:49:05.775Z,6.22
2019-04-11T14:51:34.999Z,6.44
2019-04-11T14:54:05.968Z,6.56
2019-04-11T14:56:40.081Z,6.43
2019-04-11T14:59:15.083Z,6.55
2019-04-11T15:01:46.063Z,6.68
2019-04-11T15:04:17.039Z,6.75
2019-04-11T15:06:51.013Z,6.81
2019-04-11T15:09:37.105Z,6.70
2019-04-11T15:12:08.105Z,6.75
2019-04-11T15:14:43.146Z,6.60
2019-04-11T15:17:26.537Z,6.85
2019-04-11T15:20:02.345Z,6.78
2019-04-11T15:22:47.019Z,6.48
2019-04-11T15:25:20.439Z,6.70
2019-04-11T15:28:08.077Z,7.06
2019-04-11T15:30:54.932Z,7.11
2019-04-11T15:33:41.509Z,7.16
2019-04-11T15:36:12.488Z,7.50
2019-04-11T15:39:01.977Z,7.82
2019-04-11T15:41:32.332Z,7.53
2019-04-11T15:44:19.406Z,7.14
2019-04-11T15:46:48.759Z,7.35
2019-04-11T15:49:22.103Z,7.35
2019-04-11T15:51:52.599Z,7.60
2019-04-11T15:54:30.858Z,7.72
2019-04-11T15:57:12.728Z,7.53
2019-04-11T15:59:59.175Z,7.63
2019-04-11T16:02:48.456Z,8.15
2019-04-11T16:05:35.466Z,7.92
2019-04-11T16:08:15.187Z,8.00
2019-04-11T16:10:52.316Z,7.91
2019-04-11T16:13:24.097Z,8.16
2019-04-11T16:16:06.400Z,8.34
2019-04-11T16:18:37.052Z,8.45
2019-04-11T16:21:18.344Z,8.64
2019-04-11T16:23:47.485Z,8.64
2019-04-11T16:26:23.929Z,8.41
2019-04-11T16:29:10.963Z,8.92
2019-04-11T16:31:41.910Z,8.87
2019-04-11T16:34:16.072Z,9.10
2019-04-11T16:36:47.615Z,9.29
2019-04-11T16:39:22.461Z,9.46
2019-04-11T16:41:56.229Z,9.59
2019-04-11T16:44:40.457Z,9.79
2019-04-11T16:47:27.565Z,9.89
2019-04-11T16:49:57.564Z,9.92
2019-04-11T16:52:26.913Z,9.92
2019-04-11T16:54:57.901Z,9.92
2019-04-11T16:57:27.260Z,10.25
2019-04-11T16:59:58.327Z,10.53
2019-04-11T17:02:29.073Z,10.98
2019-04-11T17:04:58.535Z,10.97
2019-04-11T17:07:30.066Z,10.88
2019-04-11T17:10:01.032Z,11.11
2019-04-11T17:12:30.388Z,11.44
2019-04-11T17:15:01.093Z,11.72
2019-04-11T17:17:31.539Z,11.70
2019-04-11T17:20:00.942Z,11.92
2019-04-11T17:22:30.393Z,11.98
2019-04-11T17:24:59.737Z,12.39
2019-04-11T17:27:29.089Z,12.54
2019-04-11T17:29:58.448Z,12.96
2019-04-11T17:32:27.786Z,13.16
2019-04-11T17:34:57.142Z,13.61
2019-04-11T17:37:26.485Z,13.62
2019-04-11T17:39:55.858Z,14.00
2019-04-11T17:42:25.188Z,14.36
2019-04-11T17:44:54.690Z,14.69
2019-04-11T17:47:26.745Z,14.84
2019-04-11T17:49:55.227Z,14.92
2019-04-11T17:52:24.577Z,15.15
2019-04-11T17:54:54.213Z,15.61
2019-04-11T17:57:26.627Z,15.86
2019-04-11T17:59:56.779Z,16.18
2019-04-11T18:02:26.293Z,16.47
2019-04-11T18:04:55.390Z,16.75
2019-04-11T18:07:24.496Z,16.98
2019-04-11T18:09:55.802Z,17.06
2019-04-11T18:12:26.305Z,17.15
2019-04-11T18:14:55.788Z,17.34
2019-04-11T18:17:25.128Z,17.55
2019-04-11T18:19:54.672Z,17.65
2019-04-11T18:22:25.014Z,17.87
2019-04-11T18:24:54.383Z,18.12
2019-04-11T18:27:23.822Z,18.21
2019-04-11T18:29:53.615Z,18.17
2019-04-11T18:32:23.005Z,18.46
2019-04-11T18:34:52.349Z,18.66
2019-04-11T18:37:21.685Z,18.72
2019-04-11T18:39:51.038Z,19.09
2019-04-11T18:42:20.399Z,19.73
2019-04-11T18:44:49.737Z,19.53
2019-04-11T18:47:19.154Z,19.65
2019-04-11T18:49:48.522Z,19.85
2019-04-11T18:52:19.909Z,20.04
2019-04-11T18:54:49.205Z,20.28
2019-04-11T18:57:18.547Z,20.58
2019-04-11T18:59:47.888Z,20.54
2019-04-11T19:02:17.242Z,20.95
2019-04-11T19:04:46.575Z,21.19
2019-04-11T19:07:27.159Z,21.10
2019-04-11T19:09:46.743Z,21.07
2019-04-11T19:12:16.426Z,21.29
2019-04-11T19:14:46.549Z,21.61
2019-04-11T19:17:16.414Z,21.69
2019-04-11T19:19:48.695Z,21.71
2019-04-11T19:22:19.719Z,21.98
2019-04-11T19:24:48.904Z,21.92
2019-04-11T19:27:20.575Z,21.85
2019-04-11T19:29:49.398Z,21.97
2019-04-11T19:32:18.977Z,22.16
2019-04-11T19:34:48.316Z,21.97
2019-04-11T19:37:17.674Z,22.26
2019-04-11T19:39:47.080Z,22.53
2019-04-11T19:42:19.699Z,22.75
2019-04-11T19:44:49.658Z,22.86
2019-04-11T19:47:21.367Z,23.17
2019-04-11T19:49:49.575Z,23.33
2019-04-11T19:52:20.690Z,23.62
2019-04-11T19:54:50.050Z,23.71
2019-04-11T19:57:19.385Z,24.14
2019-04-11T19:59:48.493Z,24.16
2019-04-11T20:02:17.847Z,24.43
2019-04-11T20:04:47.173Z,24.40
2019-04-11T20:07:16.520Z,24.50
2019-04-11T20:09:45.861Z,24.50
2019-04-11T20:12:15.287Z,24.83
2019-04-11T20:14:44.653Z,25.01
2019-04-11T20:17:14.019Z,25.00
2019-04-11T20:19:43.358Z,24.94
2019-04-11T20:22:12.700Z,25.00
2019-04-11T20:24:45.958Z,25.07
2019-04-11T20:27:13.137Z,25.24
2019-04-11T20:29:42.545Z,25.26
2019-04-11T20:32:11.947Z,25.41
2019-04-11T20:34:41.340Z,25.59
2019-04-11T20:37:13.144Z,25.60
2019-04-11T20:39:46.271Z,25.72
2019-04-11T20:42:12.993Z,25.76
2019-04-11T20:44:42.462Z,26.22
2019-04-11T20:47:11.939Z,26.30
2019-04-11T20:49:48.693Z,26.27
2019-04-11T20:52:18.058Z,26.39
2019-04-11T20:54:47.530Z,26.48
2019-04-11T20:57:25.632Z,26.60
2019-04-11T20:59:47.982Z,26.84
2019-04-11T21:02:17.476Z,27.10
2019-04-11T21:04:46.814Z,27.24
2019-04-11T21:07:16.146Z,27.17
2019-04-11T21:09:45.512Z,27.24
2019-04-11T21:12:16.600Z,27.85
2019-04-11T21:14:45.989Z,27.55
2019-04-11T21:17:15.414Z,27.97
2019-04-11T21:19:44.756Z,27.77
2019-04-11T21:22:14.197Z,27.76
2019-04-11T21:24:43.265Z,27.76
2019-04-11T21:27:12.624Z,27.80
2019-04-11T21:29:41.980Z,27.73
2019-04-11T21:32:13.889Z,28.07
2019-04-11T21:34:42.414Z,28.30
2019-04-11T21:37:11.737Z,27.96
2019-04-11T21:39:41.117Z,28.03
2019-04-11T21:42:10.467Z,28.01
2019-04-11T21:44:39.808Z,28.01
2019-04-11T21:47:09.403Z,28.28
2019-04-11T21:49:38.747Z,28.12
2019-04-11T21:52:12.009Z,28.14
2019-04-11T21:54:39.157Z,28.34
2019-04-11T21:57:08.496Z,28.47
2019-04-11T21:59:37.835Z,28.40
2019-04-11T22:02:07.549Z,28.29
2019-04-11T22:04:36.941Z,28.34
2019-04-11T22:07:06.324Z,28.25
2019-04-11T22:09:36.201Z,28.09
2019-04-11T22:12:07.926Z,28.02
2019-04-11T22:14:41.328Z,28.20
2019-04-11T22:17:07.921Z,28.34
2019-04-11T22:19:37.281Z,28.50
2019-04-11T22:22:06.614Z,28.70
2019-04-11T22:24:35.979Z,28.58
2019-04-11T22:27:05.396Z,28.53
2019-04-11T22:29:34.738Z,28.73
2019-04-11T22:32:04.079Z,28.71
2019-04-11T22:34:37.707Z,28.96
2019-04-11T22:37:07.144Z,28.97
2019-04-11T22:39:36.488Z,28.97
2019-04-11T22:42:05.912Z,29.09
2019-04-11T22:44:35.570Z,29.11
2019-04-11T22:47:08.140Z,29.24
2019-04-11T22:49:39.356Z,29.21
2019-04-11T22:52:11.298Z,29.21
2019-04-11T22:54:41.248Z,29.59
2019-04-11T22:57:12.280Z,29.80
2019-04-11T22:59:44.922Z,29.71
2019-04-11T23:02:30.736Z,29.83
2019-04-11T23:05:00.207Z,29.89
2019-04-11T23:07:29.657Z,30.23
2019-04-11T23:09:59.070Z,30.06
2019-04-11T23:12:28.404Z,30.19
2019-04-11T23:14:57.749Z,30.29
2019-04-11T23:17:27.079Z,30.46
2019-04-11T23:19:56.435Z,30.44
2019-04-11T23:22:25.772Z,30.50
2019-04-11T23:24:55.139Z,30.46
2019-04-11T23:27:24.457Z,30.92
2019-04-11T23:29:53.822Z,30.86
2019-04-11T23:32:23.291Z,30.71
2019-04-11T23:34:53.291Z,30.64
2019-04-11T23:37:22.854Z,30.84
2019-04-11T23:39:52.274Z,30.75
2019-04-11T23:42:21.609Z,30.96
2019-04-11T23:44:51.229Z,30.95
2019-04-11T23:47:23.028Z,30.92
2019-04-11T23:49:55.013Z,30.95
2019-04-11T23:52:26.416Z,31.02
2019-04-11T23:54:54.166Z,31.17
2019-04-11T23:57:23.524Z,31.23
2019-04-11T23:59:52.928Z,31.33
